Time;durP1;ratioP1;P1;durP2;ratioP2;P2;SDS_P1;SDS_P2;PMS_P1;PMS_P2;Temp;Humidity;BMP_temperature;BMP_pressure;BME280_temperature;BME280_humidity;BME280_pressure;Samples;Min_cycle;Max_cycle;Signal;HPM_P1;HPM_P2
2022/09/17 00:00:28;;;;;;;2.70;1.40;;;12.00;99.90;;;;;;5035832;28;20435;-48
2022/09/17 00:02:55;;;;;;;1.53;1.40;;;12.00;99.90;;;;;;5035562;28;20465;-47
2022/09/17 00:05:23;;;;;;;1.97;1.20;;;12.00;99.90;;;;;;5036005;28;20444;-51
2022/09/17 00:07:50;;;;;;;3.87;1.50;;;12.00;99.90;;;;;;5035352;28;20476;-51
2022/09/17 00:10:18;;;;;;;2.17;1.13;;;12.10;99.90;;;;;;5035508;28;20517;-53
2022/09/17 00:12:45;;;;;;;2.10;1.80;;;12.10;99.90;;;;;;5035131;28;20473;-53
2022/09/17 00:15:12;;;;;;;13.70;6.00;;;12.10;99.90;;;;;;5035810;28;20441;-47
2022/09/17 00:17:40;;;;;;;4.03;1.60;;;12.20;99.90;;;;;;5035667;28;20437;-48
2022/09/17 00:20:09;;;;;;;4.27;1.23;;;12.20;99.90;;;;;;5035549;28;20516;-46
2022/09/17 00:22:36;;;;;;;1.77;1.40;;;12.20;99.90;;;;;;5035316;28;20449;-51
2022/09/17 00:25:03;;;;;;;4.20;1.30;;;12.20;99.90;;;;;;5035706;28;20436;-54
2022/09/17 00:27:48;;;;;;;2.30;1.30;;;12.30;99.90;;;;;;5038191;28;20491;-50
2022/09/17 00:30:15;;;;;;;3.93;1.73;;;12.20;99.90;;;;;;5039286;28;20433;-45
2022/09/17 00:32:43;;;;;;;3.80;1.83;;;12.20;99.90;;;;;;5039903;28;20511;-49
2022/09/17 00:35:10;;;;;;;3.33;1.20;;;12.20;99.90;;;;;;5039584;28;20719;-49
2022/09/17 00:37:36;;;;;;;2.20;1.30;;;12.20;99.90;;;;;;5039154;28;20501;-55
2022/09/17 00:40:04;;;;;;;5.20;1.80;;;12.20;99.90;;;;;;5038414;28;20448;-48
2022/09/17 00:42:31;;;;;;;3.57;1.90;;;12.20;99.90;;;;;;5038397;28;20449;-51
2022/09/17 00:44:57;;;;;;;5.87;1.80;;;12.20;99.90;;;;;;5038926;28;20497;-47
2022/09/17 00:47:29;;;;;;;2.10;1.43;;;12.20;99.90;;;;;;5038574;28;20484;-47
2022/09/17 00:50:00;;;;;;;5.17;2.17;;;12.30;99.90;;;;;;5038747;28;20489;-46
2022/09/17 00:52:33;;;;;;;3.83;1.27;;;12.20;99.90;;;;;;5038355;28;20467;-45
2022/09/17 00:55:07;;;;;;;2.10;1.40;;;12.20;99.90;;;;;;5038115;28;20425;-47
2022/09/17 00:57:35;;;;;;;2.07;1.10;;;12.30;99.90;;;;;;5038303;28;20488;-43
2022/09/17 01:00:30;;;;;;;4.43;1.53;;;12.30;99.90;;;;;;5038646;28;20460;-42
2022/09/17 01:02:58;;;;;;;4.47;1.50;;;12.20;99.90;;;;;;4993987;28;20541;-45
2022/09/17 01:05:31;;;;;;;8.37;1.77;;;12.30;99.90;;;;;;5038956;28;20440;-43
2022/09/17 01:08:07;;;;;;;3.20;1.80;;;12.30;99.90;;;;;;5038209;28;20457;-47
2022/09/17 01:11:04;;;;;;;2.50;1.23;;;12.20;99.90;;;;;;5038268;28;20425;-47
2022/09/17 01:13:37;;;;;;;2.90;1.57;;;12.20;99.90;;;;;;5037726;28;20509;-44
2022/09/17 01:16:14;;;;;;;5.23;1.40;;;12.20;99.90;;;;;;5037773;28;20402;-50
2022/09/17 01:18:57;;;;;;;2.97;1.80;;;12.20;99.90;;;;;;5039036;28;20412;-53
2022/09/17 01:21:39;;;;;;;3.93;1.53;;;12.20;99.90;;;;;;5038141;28;20459;-49
2022/09/17 01:24:28;;;;;;;10.40;1.77;;;12.20;99.90;;;;;;5038379;28;20452;-48
2022/09/17 01:27:28;;;;;;;3.27;1.13;;;12.20;99.90;;;;;;5037995;28;20897;-49
2022/09/17 01:30:14;;;;;;;2.40;1.27;;;12.20;99.90;;;;;;5037861;28;20456;-47
2022/09/17 01:32:47;;;;;;;9.03;1.60;;;12.20;99.90;;;;;;5037977;28;20471;-52
2022/09/17 01:35:21;;;;;;;3.50;1.93;;;12.30;99.90;;;;;;5037633;28;20439;-47
2022/09/17 01:37:56;;;;;;;4.83;1.53;;;12.30;99.90;;;;;;5036750;28;20508;-51
2022/09/17 01:40:28;;;;;;;2.20;1.13;;;12.30;99.90;;;;;;5037521;28;20435;-51
2022/09/17 01:43:00;;;;;;;1.97;1.20;;;12.40;99.90;;;;;;5037314;28;20465;-51
2022/09/17 01:45:35;;;;;;;2.80;1.87;;;12.40;99.90;;;;;;5037684;28;20433;-48
2022/09/17 01:48:07;;;;;;;5.97;1.60;;;12.40;99.90;;;;;;5037120;28;20468;-51
2022/09/17 01:50:40;;;;;;;3.63;1.40;;;12.30;99.90;;;;;;5037471;28;20497;-48
2022/09/17 01:53:08;;;;;;;4.07;1.20;;;12.40;99.90;;;;;;5037235;28;20432;-49
2022/09/17 01:55:38;;;;;;;3.20;1.70;;;12.30;99.90;;;;;;5037666;28;20436;-48
2022/09/17 01:58:11;;;;;;;4.03;1.27;;;12.40;99.90;;;;;;5037061;28;20457;-47
2022/09/17 02:00:41;;;;;;;3.90;1.13;;;12.40;99.90;;;;;;5037107;28;20444;-51
2022/09/17 02:03:16;;;;;;;3.57;1.40;;;12.40;99.90;;;;;;5037232;28;20445;-52
2022/09/17 02:05:48;;;;;;;3.20;1.63;;;12.40;99.90;;;;;;5037223;28;20429;-51
2022/09/17 02:08:19;;;;;;;3.17;1.53;;;12.40;99.90;;;;;;5036690;28;20485;-50
2022/09/17 02:10:51;;;;;;;3.43;1.37;;;12.50;99.90;;;;;;5037182;28;20505;-53
2022/09/17 02:13:21;;;;;;;4.67;2.20;;;12.50;99.90;;;;;;5037582;28;20453;-48
2022/09/17 02:15:53;;;;;;;2.20;1.83;;;12.50;99.90;;;;;;5037548;28;20429;-50
2022/09/17 02:18:29;;;;;;;1.57;1.40;;;12.40;99.90;;;;;;5036523;28;20449;-54
2022/09/17 02:21:03;;;;;;;6.23;1.43;;;12.40;99.90;;;;;;5036918;28;20431;-52
2022/09/17 02:23:34;;;;;;;2.70;1.93;;;12.50;99.90;;;;;;5036952;28;20575;-48
2022/09/17 02:26:07;;;;;;;11.23;1.37;;;12.50;99.90;;;;;;5036973;28;20429;-48
2022/09/17 02:28:40;;;;;;;4.50;1.30;;;12.50;99.90;;;;;;5036728;28;20480;-48
2022/09/17 02:31:10;;;;;;;3.90;1.30;;;12.50;99.90;;;;;;5037124;28;20426;-45
2022/09/17 02:33:41;;;;;;;6.40;1.63;;;12.50;99.90;;;;;;5037455;28;20422;-44
2022/09/17 02:36:08;;;;;;;1.80;1.70;;;12.50;99.90;;;;;;5036557;28;20429;-52
2022/09/17 02:38:35;;;;;;;1.97;1.77;;;12.60;99.90;;;;;;5036988;28;20500;-50
2022/09/17 02:41:14;;;;;;;3.47;1.70;;;12.60;99.90;;;;;;5036856;28;20445;-49
2022/09/17 02:43:49;;;;;;;2.43;1.70;;;12.60;99.90;;;;;;5036777;28;20479;-41
2022/09/17 02:46:41;;;;;;;9.37;2.50;;;12.60;99.90;;;;;;5037037;28;20417;-50
2022/09/17 02:49:23;;;;;;;1.97;1.50;;;12.60;99.90;;;;;;5033257;28;20485;-47
2022/09/17 02:51:56;;;;;;;5.47;1.53;;;12.60;99.90;;;;;;5037100;28;20497;-49
2022/09/17 02:54:31;;;;;;;4.33;2.03;;;12.60;99.90;;;;;;5037351;28;20426;-48
2022/09/17 02:57:09;;;;;;;3.70;2.27;;;12.60;99.90;;;;;;5036890;28;20440;-52
2022/09/17 02:59:41;;;;;;;2.03;1.80;;;12.60;99.90;;;;;;5037349;28;20496;-45
2022/09/17 03:02:14;;;;;;;2.60;2.03;;;12.70;99.90;;;;;;5036444;28;20481;-44
2022/09/17 03:04:45;;;;;;;4.13;1.50;;;12.70;99.90;;;;;;5036937;28;20429;-46
2022/09/17 03:07:13;;;;;;;2.27;1.47;;;12.70;99.90;;;;;;5036281;28;20472;-48
2022/09/17 03:09:42;;;;;;;7.97;1.70;;;12.70;99.90;;;;;;5036599;28;20545;-49
2022/09/17 03:12:10;;;;;;;3.70;2.00;;;12.70;99.90;;;;;;5036647;28;20441;-46
2022/09/17 03:14:36;;;;;;;2.50;1.70;;;12.70;99.90;;;;;;5036749;28;20425;-47
2022/09/17 03:17:03;;;;;;;4.50;1.50;;;12.70;99.90;;;;;;5036494;28;20501;-45
2022/09/17 03:19:30;;;;;;;5.20;1.93;;;12.70;99.90;;;;;;5036236;28;20432;-47
2022/09/17 03:21:58;;;;;;;5.83;2.00;;;12.70;99.90;;;;;;5036787;28;20497;-50
2022/09/17 03:24:25;;;;;;;4.83;1.40;;;12.70;99.90;;;;;;5036450;28;20460;-52
2022/09/17 03:26:52;;;;;;;6.57;2.20;;;12.70;99.90;;;;;;5037075;28;20434;-44
2022/09/17 03:29:21;;;;;;;5.53;2.20;;;12.70;99.90;;;;;;5036614;28;20461;-44
2022/09/17 03:31:48;;;;;;;4.80;1.40;;;12.70;99.90;;;;;;5036914;28;20498;-43
2022/09/17 03:34:17;;;;;;;1.83;1.30;;;12.70;99.90;;;;;;5036654;28;20469;-48
2022/09/17 03:36:43;;;;;;;3.67;1.63;;;12.70;99.90;;;;;;5036905;28;20433;-49
2022/09/17 03:39:13;;;;;;;5.40;1.80;;;12.70;99.90;;;;;;5036768;28;20432;-47
2022/09/17 03:41:40;;;;;;;3.53;2.00;;;12.70;99.90;;;;;;5036665;28;20452;-51
2022/09/17 03:44:09;;;;;;;4.83;1.50;;;12.80;99.90;;;;;;5036971;28;20487;-51
2022/09/17 03:46:42;;;;;;;3.23;1.47;;;12.80;99.90;;;;;;5036538;28;20485;-44
2022/09/17 03:49:11;;;;;;;4.33;1.83;;;12.80;99.90;;;;;;5036664;28;20499;-43
2022/09/17 03:51:37;;;;;;;5.23;1.43;;;12.70;99.90;;;;;;5036935;28;20429;-57
2022/09/17 03:54:05;;;;;;;4.60;1.60;;;12.70;99.90;;;;;;5036802;28;20465;-49
2022/09/17 03:56:33;;;;;;;4.00;1.57;;;12.70;99.90;;;;;;5036960;28;20479;-49
2022/09/17 03:59:00;;;;;;;3.57;1.40;;;12.70;99.90;;;;;;5036334;28;20552;-50
2022/09/17 04:01:28;;;;;;;5.70;1.50;;;12.80;99.90;;;;;;5037136;28;20437;-55
2022/09/17 04:03:55;;;;;;;6.00;1.77;;;12.80;99.90;;;;;;5040188;28;20469;-44
2022/09/17 04:06:22;;;;;;;3.90;1.23;;;12.80;99.90;;;;;;5039908;28;20505;-53
2022/09/17 04:08:49;;;;;;;2.30;1.53;;;12.80;99.90;;;;;;5039968;28;20501;-42
2022/09/17 04:11:22;;;;;;;2.90;1.50;;;12.80;99.90;;;;;;5039951;28;20425;-50
2022/09/17 04:13:50;;;;;;;2.60;1.27;;;12.80;99.90;;;;;;5040097;28;20500;-43
2022/09/17 04:16:16;;;;;;;6.53;1.57;;;12.80;99.90;;;;;;5040028;28;20476;-54
2022/09/17 04:18:43;;;;;;;9.83;1.50;;;12.80;99.90;;;;;;5039627;28;20462;-52
2022/09/17 04:21:10;;;;;;;4.30;1.23;;;12.90;99.90;;;;;;5039620;28;20445;-45
2022/09/17 04:23:37;;;;;;;4.33;1.30;;;12.80;99.90;;;;;;5039380;28;20475;-44
2022/09/17 04:26:04;;;;;;;3.83;1.57;;;12.70;99.90;;;;;;5038934;28;20920;-45
2022/09/17 04:28:31;;;;;;;4.87;1.50;;;12.70;99.90;;;;;;5038946;28;20507;-48
2022/09/17 04:30:59;;;;;;;2.10;1.70;;;12.70;99.90;;;;;;5039032;28;20543;-49
2022/09/17 04:33:26;;;;;;;2.00;1.60;;;12.70;99.90;;;;;;5038917;28;20488;-47
2022/09/17 04:35:53;;;;;;;2.60;1.40;;;12.70;99.90;;;;;;5038877;28;20437;-46
2022/09/17 04:38:21;;;;;;;2.30;1.23;;;12.70;99.90;;;;;;5038848;28;20473;-47
2022/09/17 04:40:48;;;;;;;4.67;1.53;;;12.70;99.90;;;;;;5038819;28;20453;-45
2022/09/17 04:43:15;;;;;;;3.47;1.40;;;12.80;99.90;;;;;;5038651;28;20465;-52
2022/09/17 04:45:45;;;;;;;3.03;1.47;;;12.70;99.90;;;;;;5038463;28;20441;-48
2022/09/17 04:48:13;;;;;;;7.63;2.27;;;12.70;99.90;;;;;;5038377;28;20548;-44
2022/09/17 04:50:40;;;;;;;4.87;1.50;;;12.80;99.90;;;;;;5038681;28;20425;-44
2022/09/17 04:53:07;;;;;;;2.60;1.20;;;12.80;99.90;;;;;;5038877;28;20489;-46
2022/09/17 04:55:34;;;;;;;2.90;1.23;;;12.80;99.90;;;;;;5038884;28;20523;-52
2022/09/17 04:58:01;;;;;;;5.03;1.80;;;12.80;99.90;;;;;;5039186;28;20457;-43
2022/09/17 05:00:30;;;;;;;2.43;1.20;;;12.80;99.90;;;;;;5038707;28;20429;-49
2022/09/17 05:02:57;;;;;;;5.27;1.50;;;12.90;99.90;;;;;;5039146;28;20483;-45
2022/09/17 05:05:25;;;;;;;4.60;1.50;;;12.90;99.90;;;;;;5038411;28;20425;-51
2022/09/17 05:07:52;;;;;;;5.23;1.30;;;12.90;99.90;;;;;;5038230;28;20441;-40
2022/09/17 05:10:20;;;;;;;7.13;2.00;;;12.90;99.90;;;;;;5038537;28;20439;-51
2022/09/17 05:12:49;;;;;;;3.37;2.13;;;12.90;99.90;;;;;;5037184;28;20445;-46
2022/09/17 05:15:16;;;;;;;5.70;1.90;;;12.90;99.90;;;;;;5038723;28;20448;-44
2022/09/17 05:17:43;;;;;;;9.77;2.10;;;12.90;99.90;;;;;;5038821;28;20504;-47
2022/09/17 05:20:10;;;;;;;2.30;1.50;;;13.00;99.90;;;;;;5038583;28;20445;-51
2022/09/17 05:22:42;;;;;;;5.37;1.70;;;13.00;99.90;;;;;;5038851;28;20437;-51
2022/09/17 05:25:10;;;;;;;2.63;1.77;;;13.00;99.90;;;;;;5038881;28;20438;-44
2022/09/17 05:27:37;;;;;;;4.30;1.70;;;13.00;99.90;;;;;;5039140;28;20449;-52
2022/09/17 05:30:05;;;;;;;1.60;1.30;;;13.10;99.90;;;;;;5038919;28;20509;-56
2022/09/17 05:32:32;;;;;;;2.90;1.63;;;13.10;99.90;;;;;;5039209;28;20437;-57
2022/09/17 05:34:58;;;;;;;4.33;2.10;;;13.10;99.90;;;;;;5039144;28;20460;-50
2022/09/17 05:37:27;;;;;;;3.53;1.63;;;13.10;99.90;;;;;;5039047;28;20473;-53
2022/09/17 05:39:56;;;;;;;2.17;1.30;;;13.10;99.90;;;;;;5039021;28;20553;-45
2022/09/17 05:42:23;;;;;;;4.13;1.27;;;13.10;99.90;;;;;;5039108;28;20445;-50
2022/09/17 05:44:50;;;;;;;4.00;1.47;;;13.10;99.90;;;;;;5038076;28;20524;-44
2022/09/17 05:47:18;;;;;;;3.10;1.90;;;13.20;99.90;;;;;;5038120;28;20448;-48
2022/09/17 05:49:45;;;;;;;2.73;1.70;;;13.20;99.90;;;;;;5037295;28;20485;-47
2022/09/17 05:52:18;;;;;;;4.90;1.50;;;13.20;99.90;;;;;;5037701;28;20473;-48
2022/09/17 05:54:45;;;;;;;8.90;1.77;;;13.20;99.90;;;;;;5037650;28;20493;-50
2022/09/17 05:57:14;;;;;;;7.33;1.63;;;13.20;99.90;;;;;;5037738;28;20523;-49
2022/09/17 05:59:41;;;;;;;3.80;1.53;;;13.20;99.90;;;;;;5037781;28;20461;-51
2022/09/17 06:02:09;;;;;;;6.50;1.70;;;13.20;99.90;;;;;;5037497;28;20508;-50
2022/09/17 06:04:36;;;;;;;6.40;1.67;;;13.20;99.90;;;;;;5037412;28;20521;-47
2022/09/17 06:07:04;;;;;;;1.90;1.10;;;13.20;99.90;;;;;;5037230;28;20443;-50
2022/09/17 06:09:31;;;;;;;7.40;1.73;;;13.20;99.90;;;;;;5037491;28;20496;-47
2022/09/17 06:12:00;;;;;;;2.90;1.43;;;13.10;99.90;;;;;;5036877;28;20465;-49
2022/09/17 06:14:28;;;;;;;7.17;2.90;;;13.10;99.90;;;;;;5037746;28;20460;-45
2022/09/17 06:16:56;;;;;;;5.80;1.57;;;13.00;99.90;;;;;;5037500;28;20441;-48
2022/09/17 06:19:22;;;;;;;2.80;1.73;;;13.00;99.90;;;;;;5037043;28;20459;-47
2022/09/17 06:21:49;;;;;;;9.20;2.43;;;13.00;99.90;;;;;;5036803;28;20437;-50
2022/09/17 06:24:16;;;;;;;5.70;2.83;;;13.10;99.90;;;;;;5036247;28;20457;-53
2022/09/17 06:26:43;;;;;;;16.33;3.63;;;13.10;99.90;;;;;;5036530;28;20445;-51
2022/09/17 06:29:13;;;;;;;5.63;2.13;;;13.10;99.90;;;;;;5036648;28;20516;-51
2022/09/17 06:31:43;;;;;;;8.70;2.50;;;13.20;99.90;;;;;;5037039;28;20432;-52
2022/09/17 06:34:10;;;;;;;5.37;1.97;;;13.20;99.90;;;;;;5036577;28;20453;-47
2022/09/17 06:36:37;;;;;;;3.70;2.37;;;13.10;99.90;;;;;;5037386;28;20412;-52
2022/09/17 06:39:03;;;;;;;7.70;2.13;;;13.10;99.90;;;;;;5036770;28;20479;-51
2022/09/17 06:41:30;;;;;;;7.97;3.20;;;13.10;99.90;;;;;;5036264;28;20413;-49
2022/09/17 06:43:57;;;;;;;5.63;2.30;;;13.10;99.90;;;;;;5036360;28;20949;-46
2022/09/17 06:46:24;;;;;;;8.73;3.00;;;13.10;99.90;;;;;;5036583;28;20429;-53
2022/09/17 06:48:52;;;;;;;4.50;1.70;;;13.10;99.90;;;;;;5035934;28;20566;-49
2022/09/17 06:51:19;;;;;;;5.70;1.83;;;13.30;99.90;;;;;;5036656;28;20456;-48
2022/09/17 06:53:46;;;;;;;6.10;2.60;;;13.40;99.90;;;;;;5036487;28;20441;-47
2022/09/17 06:56:13;;;;;;;3.57;2.03;;;13.40;99.90;;;;;;5036565;28;20422;-49
2022/09/17 06:58:40;;;;;;;5.43;2.50;;;13.40;99.90;;;;;;5036379;28;20456;-47
2022/09/17 07:01:07;;;;;;;14.40;2.37;;;13.30;99.90;;;;;;5036273;28;20413;-49
2022/09/17 07:03:34;;;;;;;6.07;2.00;;;13.30;99.90;;;;;;5036854;28;20814;-51
2022/09/17 07:06:03;;;;;;;10.10;2.00;;;13.30;99.90;;;;;;5036401;28;20460;-49
2022/09/17 07:08:33;;;;;;;13.67;2.77;;;13.30;99.90;;;;;;5036063;28;20463;-51
2022/09/17 07:11:00;;;;;;;10.43;2.10;;;13.30;99.90;;;;;;5036073;28;20495;-49
2022/09/17 07:13:30;;;;;;;9.10;2.03;;;13.30;99.90;;;;;;5036340;28;20509;-49
2022/09/17 07:15:58;;;;;;;4.43;2.20;;;13.30;99.90;;;;;;5036345;28;20472;-45
2022/09/17 07:18:25;;;;;;;13.57;2.00;;;13.30;99.90;;;;;;5036648;28;20476;-46
2022/09/17 07:20:54;;;;;;;4.50;2.07;;;13.30;99.90;;;;;;5036844;28;20663;-50
2022/09/17 07:23:23;;;;;;;4.63;1.67;;;13.20;99.90;;;;;;5036933;28;20436;-48
2022/09/17 07:25:53;;;;;;;10.40;1.50;;;13.20;99.90;;;;;;5036929;28;20437;-50
2022/09/17 07:28:21;;;;;;;5.77;2.17;;;13.30;99.90;;;;;;5037051;28;20517;-55
2022/09/17 07:30:48;;;;;;;3.23;2.00;;;13.40;99.90;;;;;;5036792;28;20480;-50
2022/09/17 07:33:15;;;;;;;5.43;1.70;;;13.50;99.90;;;;;;5036090;28;20433;-44
2022/09/17 07:35:51;;;;;;;3.90;1.67;;;13.60;99.90;;;;;;5036562;28;20461;-50
2022/09/17 07:38:18;;;;;;;13.17;2.10;;;13.70;99.90;;;;;;5039983;28;20408;-47
2022/09/17 07:40:54;;;;;;;5.93;1.70;;;13.80;99.90;;;;;;5040121;28;20461;-47
2022/09/17 07:43:22;;;;;;;3.90;1.40;;;13.90;99.90;;;;;;5040720;28;20445;-50
2022/09/17 07:45:49;;;;;;;6.30;2.50;;;13.80;99.90;;;;;;5039653;28;20639;-44
2022/09/17 07:48:16;;;;;;;1.97;1.33;;;13.80;99.90;;;;;;5039832;28;20468;-45
2022/09/17 07:50:43;;;;;;;7.37;2.37;;;13.80;99.90;;;;;;5039550;28;20493;-47
2022/09/17 07:53:10;;;;;;;2.90;1.80;;;13.90;99.90;;;;;;5039946;28;20533;-50
2022/09/17 07:55:37;;;;;;;7.53;2.07;;;14.00;99.90;;;;;;5039685;28;20479;-48
2022/09/17 07:58:12;;;;;;;9.70;1.90;;;13.90;99.90;;;;;;5040115;28;20449;-47
2022/09/17 08:00:39;;;;;;;7.13;1.50;;;14.00;99.90;;;;;;5039922;28;20508;-48
2022/09/17 08:03:05;;;;;;;3.40;1.80;;;13.90;99.90;;;;;;5039449;28;20469;-46
2022/09/17 08:05:38;;;;;;;5.23;1.33;;;13.90;99.90;;;;;;5039425;28;20945;-44
2022/09/17 08:08:05;;;;;;;12.03;2.70;;;14.00;99.90;;;;;;5039691;28;20474;-54
2022/09/17 08:10:32;;;;;;;7.13;2.10;;;14.10;99.90;;;;;;5039023;28;20483;-47
2022/09/17 08:12:59;;;;;;;4.70;1.50;;;14.20;99.90;;;;;;5039207;28;20445;-49
2022/09/17 08:15:27;;;;;;;4.57;1.60;;;14.30;99.90;;;;;;5038830;28;20469;-50
2022/09/17 08:17:54;;;;;;;6.30;2.10;;;14.30;99.90;;;;;;5039152;28;20465;-47
2022/09/17 08:20:23;;;;;;;17.13;2.40;;;14.20;99.90;;;;;;5038807;28;20453;-47
2022/09/17 08:22:49;;;;;;;3.80;1.40;;;14.20;99.90;;;;;;5039437;28;20449;-50
2022/09/17 08:25:16;;;;;;;6.40;1.37;;;14.20;99.90;;;;;;5039107;28;20480;-50
2022/09/17 08:27:46;;;;;;;12.47;2.47;;;14.30;99.90;;;;;;5039225;28;20459;-46
2022/09/17 08:30:12;;;;;;;4.90;1.93;;;14.30;99.90;;;;;;5038877;28;20477;-47
2022/09/17 08:32:41;;;;;;;5.93;1.50;;;14.40;99.90;;;;;;5038664;28;20460;-48
2022/09/17 08:35:10;;;;;;;6.70;1.60;;;15.20;99.90;;;;;;5038575;28;20469;-46
2022/09/17 08:37:37;;;;;;;4.50;1.70;;;16.10;99.90;;;;;;5037537;28;20455;-54
2022/09/17 08:40:04;;;;;;;6.30;1.70;;;16.70;99.90;;;;;;5037876;28;20479;-52
2022/09/17 08:42:37;;;;;;;6.87;1.30;;;16.40;99.90;;;;;;5038409;28;20492;-49
2022/09/17 08:45:17;;;;;;;8.30;2.37;;;16.60;99.90;;;;;;5038584;28;20488;-49
2022/09/17 08:47:47;;;;;;;3.83;1.67;;;16.70;99.90;;;;;;5038218;28;20417;-50
2022/09/17 08:50:16;;;;;;;2.57;1.60;;;17.60;99.90;;;;;;5038069;28;20469;-50
2022/09/17 08:53:20;;;;;;;4.53;1.30;;;18.20;99.90;;;;;;5037626;28;20441;-46
2022/09/17 08:55:54;;;;;;;9.73;1.60;;;18.20;99.90;;;;;;5018548;28;20456;-50
2022/09/17 08:58:39;;;;;;;4.60;1.60;;;18.20;99.90;;;;;;5037469;28;20494;-48
2022/09/17 09:01:16;;;;;;;6.97;1.60;;;17.70;99.90;;;;;;5037856;28;20476;-48
2022/09/17 09:03:58;;;;;;;3.93;2.17;;;17.00;99.90;;;;;;5037679;28;20413;-52
2022/09/17 09:06:30;;;;;;;3.37;1.23;;;17.40;99.90;;;;;;5037443;28;20456;-49
2022/09/17 09:09:00;;;;;;;5.63;1.60;;;17.80;99.90;;;;;;5037775;28;20444;-48
2022/09/17 09:11:29;;;;;;;5.53;1.30;;;18.00;99.90;;;;;;5037339;28;20948;-48
2022/09/17 09:14:04;;;;;;;2.43;1.30;;;17.50;99.90;;;;;;5037840;28;20501;-51
2022/09/17 09:16:33;;;;;;;3.93;1.40;;;16.80;99.90;;;;;;5037817;28;20475;-49
2022/09/17 09:19:15;;;;;;;9.27;1.50;;;16.30;99.90;;;;;;5037764;28;20418;-51
2022/09/17 09:21:56;;;;;;;8.57;1.60;;;16.00;99.90;;;;;;5037692;28;20444;-48
2022/09/17 09:24:25;;;;;;;6.30;1.57;;;15.80;99.90;;;;;;5037556;28;20437;-48
2022/09/17 09:27:08;;;;;;;11.53;2.40;;;16.00;99.90;;;;;;5037673;28;20452;-51
2022/09/17 09:29:41;;;;;;;3.37;1.10;;;16.30;99.90;;;;;;5037335;28;20453;-48
2022/09/17 09:32:22;;;;;;;4.77;1.50;;;16.60;99.90;;;;;;5037096;28;20493;-51
2022/09/17 09:34:54;;;;;;;5.13;1.43;;;16.60;99.90;;;;;;5037156;28;20431;-48
2022/09/17 09:37:26;;;;;;;4.90;1.37;;;16.40;99.90;;;;;;5037163;28;20439;-51
2022/09/17 09:39:57;;;;;;;2.87;1.60;;;16.20;99.90;;;;;;5037398;28;20423;-46
2022/09/17 09:42:32;;;;;;;5.10;1.40;;;16.50;99.90;;;;;;5036706;28;20429;-48
2022/09/17 09:45:01;;;;;;;4.90;1.53;;;16.50;99.90;;;;;;5036933;28;20441;-48
2022/09/17 09:47:46;;;;;;;5.30;1.37;;;16.50;99.90;;;;;;5036704;28;20437;-53
2022/09/17 09:50:47;;;;;;;8.20;1.63;;;16.30;99.90;;;;;;5037132;28;20492;-51
2022/09/17 09:53:26;;;;;;;5.50;1.57;;;16.00;99.90;;;;;;5037572;28;20415;-50
2022/09/17 09:56:06;;;;;;;10.87;4.43;;;15.60;99.90;;;;;;5038158;28;20517;-46
2022/09/17 09:58:35;;;;;;;7.67;1.40;;;15.30;99.90;;;;;;5037582;28;20425;-48
2022/09/17 10:01:03;;;;;;;1.63;1.10;;;15.00;99.90;;;;;;5037524;28;20464;-49
2022/09/17 10:03:32;;;;;;;4.97;1.80;;;14.70;99.90;;;;;;5037303;28;20536;-47
2022/09/17 10:06:02;;;;;;;5.87;1.60;;;14.50;99.90;;;;;;5037388;28;20574;-50
2022/09/17 10:08:31;;;;;;;2.97;1.27;;;14.40;99.90;;;;;;5037183;28;20429;-52
2022/09/17 10:11:00;;;;;;;4.70;1.63;;;14.40;99.90;;;;;;5037113;28;20697;-43
2022/09/17 10:13:29;;;;;;;15.97;1.83;;;14.60;99.90;;;;;;5036948;28;20464;-44
2022/09/17 10:15:57;;;;;;;3.60;1.33;;;15.20;99.90;;;;;;5036923;28;20469;-46
2022/09/17 10:18:25;;;;;;;4.27;1.20;;;16.40;99.90;;;;;;5036432;28;20448;-43
2022/09/17 10:20:55;;;;;;;3.87;1.10;;;17.50;99.90;;;;;;5035928;28;20541;-46
2022/09/17 10:23:26;;;;;;;3.20;1.20;;;17.80;99.90;;;;;;5036057;28;20434;-48
2022/09/17 10:25:54;;;;;;;5.27;1.77;;;18.10;99.90;;;;;;5036036;28;20461;-49
2022/09/17 10:28:42;;;;;;;2.40;1.03;;;18.00;99.90;;;;;;5035853;28;20486;-47
2022/09/17 10:31:11;;;;;;;1.97;1.50;;;17.90;99.90;;;;;;5035506;28;20489;-51
2022/09/17 10:33:52;;;;;;;5.13;1.50;;;17.70;99.90;;;;;;5036130;28;20460;-50
2022/09/17 10:36:40;;;;;;;3.80;1.30;;;17.50;99.90;;;;;;5035624;28;20459;-47
2022/09/17 10:39:43;;;;;;;4.70;1.77;;;17.20;99.90;;;;;;5035956;28;20409;-56
2022/09/17 10:42:14;;;;;;;4.80;1.60;;;16.90;99.90;;;;;;4956706;29;20460;-51
2022/09/17 10:44:52;;;;;;;5.07;1.10;;;16.50;99.90;;;;;;5023183;28;20461;-47
2022/09/17 10:47:24;;;;;;;2.80;1.37;;;16.10;99.90;;;;;;5035866;28;20532;-51
2022/09/17 10:49:55;;;;;;;2.70;1.50;;;15.60;99.90;;;;;;5036179;28;20469;-51
2022/09/17 10:52:26;;;;;;;5.33;1.53;;;15.30;99.90;;;;;;5036416;28;20416;-48
2022/09/17 10:55:18;;;;;;;4.07;1.50;;;15.30;99.90;;;;;;5036481;28;20441;-51
2022/09/17 10:58:04;;;;;;;7.00;1.50;;;15.70;99.90;;;;;;5036127;28;20481;-49
2022/09/17 11:00:41;;;;;;;7.30;1.20;;;16.00;99.90;;;;;;5036280;28;20444;-47
2022/09/17 11:03:33;;;;;;;5.93;1.30;;;16.00;99.90;;;;;;5036250;28;20512;-51
2022/09/17 11:06:25;;;;;;;1.10;0.80;;;15.80;99.90;;;;;;5036228;28;20469;-47
2022/09/17 11:09:00;;;;;;;5.40;1.67;;;15.80;99.90;;;;;;5036560;28;20439;-48
2022/09/17 11:11:42;;;;;;;4.40;1.50;;;15.70;99.90;;;;;;5035192;28;20548;-46
2022/09/17 11:14:23;;;;;;;2.23;1.17;;;15.60;99.90;;;;;;5036709;28;20477;-55
2022/09/17 11:17:01;;;;;;;6.10;1.10;;;15.50;99.90;;;;;;5036622;28;20548;-51
2022/09/17 11:19:38;;;;;;;4.37;2.00;;;15.40;99.90;;;;;;5036520;28;20443;-47
2022/09/17 11:22:12;;;;;;;2.27;1.00;;;15.30;99.90;;;;;;5036425;28;20495;-52
2022/09/17 11:25:01;;;;;;;2.20;1.10;;;15.50;99.90;;;;;;5036460;28;20414;-51
2022/09/17 11:27:48;;;;;;;4.53;1.40;;;15.90;99.90;;;;;;5035875;28;20476;-49
2022/09/17 11:30:19;;;;;;;1.50;1.07;;;16.40;99.90;;;;;;5036325;28;20465;-44
2022/09/17 11:33:21;;;;;;;6.90;1.70;;;16.60;99.90;;;;;;5036475;28;20457;-48
2022/09/17 11:35:50;;;;;;;3.60;1.20;;;16.50;99.90;;;;;;5023268;28;20445;-53
2022/09/17 11:38:24;;;;;;;2.20;1.27;;;16.50;99.90;;;;;;5035549;28;20412;-49
2022/09/17 11:40:58;;;;;;;2.53;1.30;;;16.50;99.90;;;;;;5036260;28;20440;-45
2022/09/17 11:43:29;;;;;;;3.03;2.73;;;16.40;99.90;;;;;;5036267;28;20448;-51
2022/09/17 11:46:02;;;;;;;1.93;1.03;;;16.30;99.90;;;;;;5036457;28;20413;-47
2022/09/17 11:48:35;;;;;;;6.93;1.43;;;16.10;99.90;;;;;;5037093;28;20437;-48
2022/09/17 11:51:18;;;;;;;3.60;1.77;;;15.90;99.90;;;;;;5036957;28;20467;-53
2022/09/17 11:53:51;;;;;;;3.37;1.30;;;15.80;99.90;;;;;;5037026;28;20447;-50
2022/09/17 11:56:23;;;;;;;8.17;1.87;;;15.80;99.90;;;;;;5036461;28;20468;-55
2022/09/17 11:58:57;;;;;;;3.00;1.30;;;16.00;99.90;;;;;;5037031;28;20436;-47
2022/09/17 12:01:31;;;;;;;5.93;1.50;;;16.00;99.90;;;;;;5036108;28;20460;-50
2022/09/17 12:04:01;;;;;;;3.33;1.20;;;16.30;99.90;;;;;;5036145;28;20429;-51
2022/09/17 12:06:35;;;;;;;2.27;0.90;;;16.50;99.90;;;;;;5035474;28;20479;-48
2022/09/17 12:09:08;;;;;;;2.90;1.47;;;16.60;99.90;;;;;;5035953;28;20826;-50
2022/09/17 12:11:41;;;;;;;4.90;1.00;;;16.70;99.90;;;;;;5036002;28;20493;-48
2022/09/17 12:14:17;;;;;;;5.23;0.93;;;16.70;99.90;;;;;;5035952;28;20445;-45
2022/09/17 12:16:49;;;;;;;4.17;1.10;;;16.70;99.90;;;;;;5035785;28;20465;-54
2022/09/17 12:19:22;;;;;;;2.50;0.90;;;16.80;99.90;;;;;;5036041;28;20424;-45
2022/09/17 12:21:52;;;;;;;3.43;1.33;;;16.80;99.90;;;;;;5035529;28;20453;-50
2022/09/17 12:24:26;;;;;;;2.80;1.10;;;16.80;99.90;;;;;;5038659;28;20449;-49
2022/09/17 12:27:15;;;;;;;1.30;0.80;;;16.60;99.90;;;;;;5039008;28;20556;-43
2022/09/17 12:30:08;;;;;;;2.50;0.90;;;16.20;99.90;;;;;;5038767;28;20452;-50
2022/09/17 12:33:01;;;;;;;3.77;1.10;;;16.00;99.90;;;;;;5039080;28;20449;-47
2022/09/17 12:35:58;;;;;;;6.67;1.93;;;15.80;99.90;;;;;;5038832;28;20437;-50
2022/09/17 12:38:41;;;;;;;2.93;1.30;;;15.70;99.90;;;;;;5038319;28;20468;-55
2022/09/17 12:41:15;;;;;;;7.90;1.10;;;15.70;99.90;;;;;;5038595;28;20413;-47
2022/09/17 12:43:59;;;;;;;3.40;1.20;;;15.70;99.90;;;;;;5038239;28;20504;-46
2022/09/17 12:46:41;;;;;;;3.30;1.27;;;15.90;99.90;;;;;;5038156;28;20417;-52
2022/09/17 12:49:22;;;;;;;2.83;1.40;;;16.20;99.90;;;;;;5038493;28;20485;-45
2022/09/17 12:51:56;;;;;;;2.30;0.90;;;16.40;99.90;;;;;;5038222;28;20578;-45
2022/09/17 12:55:00;;;;;;;2.80;1.10;;;16.60;99.90;;;;;;5038068;28;20433;-48
2022/09/17 12:57:36;;;;;;;1.30;1.10;;;16.60;99.90;;;;;;5037964;28;20472;-46
2022/09/17 13:00:08;;;;;;;2.20;1.00;;;16.70;99.90;;;;;;5037988;28;20437;-51
2022/09/17 13:02:41;;;;;;;3.10;1.93;;;16.70;99.90;;;;;;5038085;28;20457;-47
2022/09/17 13:05:28;;;;;;;3.63;1.37;;;16.40;99.90;;;;;;5038241;28;20481;-47
2022/09/17 13:08:17;;;;;;;1.60;1.10;;;16.20;99.90;;;;;;5037729;28;20469;-50
2022/09/17 13:11:04;;;;;;;3.00;1.30;;;16.00;99.90;;;;;;5038114;28;20465;-47